Morrisville, North Carolina
Current Conditions -  °F | °C
As of 4:51 AM on Saturday 01 Nov 2014 (Local Time) from KRDU Reporting Station
Moderate Rain Moderate Rain  
Wind Chill: 43°   Ceiling: 4000
Heat Index: 46°   Visibility: 4mi
Dew Point: 43°   Wind: 6mph
Humidity: 89%   Direction: 20°NNE
Pressure: 29.74"   Gusts: NA
Location:  35.82°N, 78.83°W
Report Text: KRDU 010851Z 02005KT 4SM RA BR OVC040 08/06 A2974 RMK AO2 SLP071 P0017 60027 T00780061 56007
Loading
Personal Weather Stations






























Interactive Weather Map
Tropical Storm Tracking
New forecast layout! Learn more

10-Day Weather Forecast

Advertisements
Track Severe Weather on mobile